Weather observations for the past three days for
Denton Enterprise Airport
Imperial (Metric)
Date Time (cdt) Wind (mph) Vis. (mi.) Weather Sky Cond. Temperature (ºF) Relative Humidity Wind Chill (°F) Heat Index (°F) Pressure Precipitation (in)
Air Dwpt 6 hour altimeter (in) sea level (mb) 1 hr 3 hr 6 hr
Max. Min.
04 08:53 S 17 G 28 10.00 Fair CLR 66.9 55.9 68% 29.91 1012.2
04 07:53 S 12 10.00 A Few Clouds FEW120 63 54 73% 29.91 1012.1
04 06:53 S 13 10.00 Fair CLR 61 53.1 64.9 60.1 75% 29.9 1011.7
04 05:53 S 10 10.00 Fair CLR 62.1 52 70% 29.9 1011.7
04 04:53 S 10 10.00 Fair CLR 61 51.1 70% 29.91 1012.1
04 03:53 S 9 10.00 Fair CLR 62.1 50 65% 29.92 1012.4
04 02:53 S 9 10.00 Fair CLR 61 50 67% 29.93 1012.8
04 01:53 S 9 10.00 Fair CLR 63 50 63% 29.95 1013.5
04 00:53 S 10 10.00 Fair CLR 63 48.9 77 57.9 60% 29.97 1014.1
03 23:53 S 9 10.00 Fair CLR 63 50 63% 29.99 1014.9
03 22:53 S 7 10.00 Fair CLR 60.1 48.9 67% 30 1015.1
03 21:53 S 9 10.00 Fair CLR 66.9 46.9 49% 29.99 1014.8
03 20:53 S 12 10.00 Fair CLR 70 46.9 44% 29.98 1014.7
03 19:53 S 9 10.00 Fair CLR 73 46.9 40% 29.97 1014.2
03 18:53 S 10 10.00 Fair CLR 77 46.9 82 77 35% 78 29.98 1014.6
03 17:53 SW 13 G 21 10.00 Fair CLR 79 46.9 32% 79 29.99 1014.9
03 16:53 SW 12 G 25 10.00 Fair CLR 81 45 28% 80 30 1015.4
03 15:53 S 17 10.00 Fair CLR 81 46.9 30% 80 30.04 1016.5
03 14:53 W 13 G 22 10.00 Fair CLR 80.1 46.9 31% 79 30.06 1017.4
03 13:53 SW 15 G 22 10.00 Fair CLR 80.1 50 35% 80 30.09 1018.3
03 12:53 SW 14 10.00 Fair CLR 79 52 79 48 39% 79 30.12 1019.5
03 11:53 SW 10 G 21 10.00 Fair CLR 77 52 42% 78 30.14 1020.2
03 10:53 SW 14 10.00 Fair CLR 75 52 45% 78 30.15 1020.6
03 09:53 SW 10 10.00 Fair CLR 70 52 53% 30.15 1020.5
03 08:53 SW 8 10.00 Fair CLR 63 52 68% 30.15 1020.6
03 07:53 S 3 10.00 Fair CLR 57 52 83% 30.15 1020.3
03 06:53 SW 3 10.00 Fair CLR 48 45 55.9 46.9 89% 30.13 1019.9
03 05:53 Calm 10.00 Fair CLR 48.9 46 90% 30.12 1019.4
03 04:53 S 5 10.00 Fair CLR 53.1 48 83% 30.12 1019.3
03 03:53 Calm 10.00 Fair CLR 50 46.9 89% 30.11 1019.3
03 02:53 S 3 10.00 Fair CLR 53.1 48 83% 30.11 1019.2
03 01:53 Calm 10.00 Fair CLR 51.1 48 89% 30.13 1019.7
03 00:53 Calm 10.00 Fair CLR 54 50 73.9 52 87% 30.12 1019.3
02 23:53 Calm 10.00 Fair CLR 53.1 50 89% 30.11 1019.2
02 22:53 S 3 10.00 Fair CLR 57 51.1 81% 30.11 1019.2
02 21:53 Calm 10.00 Fair CLR 62.1 51.1 67% 30.1 1018.7
02 20:53 SW 3 10.00 Fair CLR 64 52 65% 30.09 1018.4
02 19:53 SW 3 10.00 Fair CLR 70 52 53% 30.08 1018.1
02 18:53 W 6 10.00 Fair CLR 73.9 48.9 77 71.1 41% 30.08 1018.0
02 17:53 W 9 10.00 Fair CLR 75 48.9 40% 77 30.08 1018.3
02 16:53 W 10 10.00 Partly Cloudy SCT075 75 46.9 37% 77 30.09 1018.6
02 15:53 Calm 10.00 Mostly Cloudy BKN070 BKN090 75 46 36% 77 30.12 1019.4
02 14:53 Vrbl 5 10.00 A Few Clouds FEW070 75.9 46.9 36% 78 30.13 1019.9
02 13:53 Vrbl 3 10.00 Fair CLR 73.9 45 36% 30.15 1020.6
02 12:53 N 6 10.00 Fair CLR 73 45 73 45 37% 30.18 1021.5
02 11:53 SW 6 10.00 Fair CLR 71.1 41 34% 30.2 1022.1
02 10:53 Vrbl 3 10.00 Fair CLR 69.1 43 39% 30.19 1021.9
02 09:53 Calm 10.00 Fair CLR 66 44.1 45% 30.19 1021.8
02 08:53 Calm 10.00 Fair CLR 59 51.1 75% 30.18 1021.6
02 07:53 Calm 10.00 Fair CLR 51.1 48.9 92% 30.17 1021.2
02 06:53 N 3 10.00 Fair CLR 45 44.1 55 44.1 97% 30.14 1020.3
02 05:53 N 3 10.00 Fair CLR 44.1 43 96% 30.12 1019.6
02 04:53 NW 3 9.00 Fair CLR 48 46.9 96% 30.1 1019.0
02 03:53 NW 6 10.00 Fair CLR 48 46.9 96% 46 30.1 1018.9
02 02:53 Calm 10.00 Fair CLR 52 48 86% 30.1 1019.0
02 01:53 Calm 10.00 Fair CLR 51.1 48.9 92% 30.11 1019.3
02 00:53 Calm 10.00 Fair CLR 50 48 64 50 93% 30.11 1019.2
01 23:53 S 6 10.00 Fair CLR 52 50 93% 30.1 1018.9
01 22:53 Calm 10.00 Mostly Cloudy BKN065 59 52 78% 30.09 1018.6
01 21:53 Calm 10.00 Overcast OVC070 59 53.1 81% 30.08 1018.4
01 20:53 Calm 10.00 A Few Clouds FEW120 60.1 52 75% 30.06 1017.5
01 19:53 Calm 10.00 Mostly Cloudy BKN110 62.1 50 65% 30.02 1016.2
01 18:53 NE 3 10.00 Fair CLR 64 46.9 66 64 54% 30 1015.4
01 17:53 Calm 10.00 Mostly Cloudy BKN110 64.9 48 54% 29.99 1015.1
01 16:53 NE 6 10.00 Fair CLR 64.9 48 54% 29.98 1014.9
01 15:53 NE 6 10.00 Overcast OVC100 64.9 48 54% 30.01 1015.8
01 14:53 NE 10 10.00 Overcast OVC095 64 46 52% 30.01 1015.9
01 13:53 E 9 G 22 10.00 Overcast OVC090 64 46 52% 30 1015.5
01 12:53 E 12 G 24 10.00 Overcast FEW042 OVC085 64 48 64.9 57 56% 30.03 1016.5
01 11:53 NE 10 10.00 Fair CLR 61 48.9 65% 30.05 1017.0
01 10:53 E 9 10.00 Overcast OVC095 60.1 50 70% 30.06 1017.4
01 09:53 E 6 10.00 Overcast OVC085 57.9 50 75% 30.04 1016.8
Date Time (cdt) Wind (mph) Vis. (mi.) Weather Sky Cond. Air Dwpt Max. Min. Relative Humidity Wind Chill (°F) Heat Index (°F) altimeter (in) sea level (mb) 1 hr 3 hr 6 hr
6 hour
Temperature (ºF) Pressure Precipitation (in)